Time;durP1;ratioP1;P1;durP2;ratioP2;P2;SDS_P1;SDS_P2;PMS_P1;PMS_P2;Temp;Humidity;BMP_temperature;BMP_pressure;BME280_temperature;BME280_humidity;BME280_pressure;Samples;Min_cycle;Max_cycle;Signal;HPM_P1;HPM_P2
2022/01/11 00:00:43;;;;;;;107.72;38.97;;;-0.20;99.90;;;;;;5048585;28;20550;-65
2022/01/11 00:03:09;;;;;;;100.28;37.55;;;-0.20;99.90;;;;;;5051572;28;20052;-65
2022/01/11 00:08:18;;;;;;;92.60;35.60;;;-0.20;99.90;;;;;;5041631;28;20135;-65
2022/01/11 00:10:50;;;;;;;95.97;35.65;;;-0.30;99.90;;;;;;5050243;28;20452;-65
2022/01/11 00:13:18;;;;;;;96.43;37.65;;;-0.30;99.90;;;;;;5047984;28;20392;-65
2022/01/11 00:15:46;;;;;;;89.97;36.78;;;-0.30;99.90;;;;;;5051193;28;20505;-65
2022/01/11 00:18:12;;;;;;;92.13;36.97;;;-0.40;99.90;;;;;;5050711;28;20040;-64
2022/01/11 00:20:39;;;;;;;88.60;35.63;;;-0.40;99.90;;;;;;5031985;28;20048;-66
2022/01/11 00:25:36;;;;;;;84.22;33.90;;;-0.40;99.90;;;;;;5050391;28;20056;-64
2022/01/11 00:28:03;;;;;;;97.63;36.90;;;-0.50;99.90;;;;;;5047084;28;20525;-66
2022/01/11 00:30:32;;;;;;;94.60;37.17;;;-0.50;99.90;;;;;;5051435;28;20080;-66
2022/01/11 00:33:01;;;;;;;88.15;36.65;;;-0.50;99.90;;;;;;5047671;28;20124;-66
2022/01/11 00:35:38;;;;;;;96.15;37.22;;;-0.50;99.90;;;;;;5045633;28;20039;-66
2022/01/11 00:38:03;;;;;;;102.95;37.65;;;-0.50;99.90;;;;;;5049733;28;20029;-65
2022/01/11 00:40:29;;;;;;;86.30;35.78;;;-0.50;99.90;;;;;;5051211;28;20502;-68
2022/01/11 00:42:59;;;;;;;92.72;36.72;;;-0.50;99.90;;;;;;5049832;28;20029;-66
2022/01/11 00:45:26;;;;;;;82.15;35.28;;;-0.50;99.90;;;;;;5051101;28;20277;-65
2022/01/11 00:47:52;;;;;;;81.88;35.33;;;-0.60;99.90;;;;;;5049716;28;20056;-66
2022/01/11 00:50:18;;;;;;;96.15;36.92;;;-0.60;99.90;;;;;;5050342;28;20400;-66
2022/01/11 00:52:44;;;;;;;102.75;38.63;;;-0.60;99.90;;;;;;5049995;28;20487;-66
2022/01/11 00:55:10;;;;;;;89.30;36.40;;;-0.60;99.90;;;;;;5050027;28;20040;-66
2022/01/11 00:57:36;;;;;;;84.22;36.05;;;-0.60;99.90;;;;;;5050149;28;20060;-66
2022/01/11 01:00:04;;;;;;;89.50;35.80;;;-0.60;99.90;;;;;;5050460;28;20490;-66
2022/01/11 01:02:29;;;;;;;90.60;37.95;;;-0.60;99.90;;;;;;5050105;28;20045;-65
2022/01/11 01:04:55;;;;;;;80.13;35.78;;;-0.60;99.90;;;;;;5049816;28;20033;-66
2022/01/11 01:07:20;;;;;;;89.38;35.92;;;-0.60;99.90;;;;;;5048796;28;20052;-65
2022/01/11 01:09:59;;;;;;;87.15;36.72;;;-0.60;99.90;;;;;;5050353;28;20032;-66
2022/01/11 01:12:25;;;;;;;92.75;34.33;;;-0.70;99.90;;;;;;5035631;28;20139;-65
2022/01/11 01:14:50;;;;;;;81.90;36.03;;;-0.60;99.90;;;;;;5054101;28;20530;-65
2022/01/11 01:17:16;;;;;;;80.75;34.08;;;-0.70;99.90;;;;;;5052053;28;20052;-65
2022/01/11 01:19:42;;;;;;;101.40;36.55;;;-0.70;99.90;;;;;;5053373;28;20047;-66
2022/01/11 01:22:07;;;;;;;98.10;35.92;;;-0.70;99.90;;;;;;5055110;28;20047;-65
2022/01/11 01:24:33;;;;;;;82.78;35.88;;;-0.70;99.90;;;;;;5052748;28;20048;-65
2022/01/11 01:26:59;;;;;;;93.50;36.60;;;-0.70;99.90;;;;;;5050947;28;20398;-65
2022/01/11 01:29:25;;;;;;;102.25;38.67;;;-0.70;99.90;;;;;;5054394;28;20065;-65
2022/01/11 01:31:51;;;;;;;85.70;34.75;;;-0.70;99.90;;;;;;5053620;28;20085;-65
2022/01/11 01:34:16;;;;;;;88.93;35.95;;;-0.70;99.90;;;;;;5053840;28;20068;-65
2022/01/11 01:36:42;;;;;;;104.18;37.30;;;-0.70;99.90;;;;;;5051189;28;20094;-65
2022/01/11 01:39:08;;;;;;;90.43;35.72;;;-0.70;99.90;;;;;;5045197;28;20395;-65
2022/01/11 01:41:34;;;;;;;97.82;36.80;;;-0.70;99.90;;;;;;5053853;28;20041;-67
2022/01/11 01:44:01;;;;;;;98.07;36.92;;;-0.70;99.90;;;;;;5051420;28;20041;-67
2022/01/11 01:46:28;;;;;;;81.03;35.50;;;-0.70;99.90;;;;;;5050397;28;20055;-64
2022/01/11 01:48:56;;;;;;;95.07;35.78;;;-0.70;99.90;;;;;;5052638;28;20124;-65
2022/01/11 01:51:22;;;;;;;122.35;39.80;;;-0.70;99.90;;;;;;5054390;28;20071;-65
2022/01/11 01:53:49;;;;;;;116.35;39.13;;;-0.70;99.90;;;;;;5052764;28;21877;-64
2022/01/11 01:56:17;;;;;;;96.43;37.13;;;-0.70;99.90;;;;;;5053112;28;20398;-65
2022/01/11 01:58:43;;;;;;;105.47;37.55;;;-0.70;99.90;;;;;;5053121;28;20051;-66
2022/01/11 02:01:09;;;;;;;91.53;37.38;;;-0.70;99.90;;;;;;5053228;28;20048;-64
2022/01/11 02:03:39;;;;;;;108.90;40.38;;;-0.70;99.90;;;;;;5049670;28;20116;-66
2022/01/11 02:06:10;;;;;;;101.07;37.28;;;-0.70;99.90;;;;;;5053091;28;20398;-65
2022/01/11 02:08:37;;;;;;;106.85;39.35;;;-0.70;99.90;;;;;;5047233;28;20120;-65
2022/01/11 02:11:03;;;;;;;102.35;39.88;;;-0.60;99.90;;;;;;5047890;28;20427;-65
2022/01/11 02:13:29;;;;;;;105.47;40.05;;;-0.60;99.90;;;;;;5052339;28;20037;-64
2022/01/11 02:15:55;;;;;;;116.00;39.88;;;-0.70;99.90;;;;;;5052174;28;20500;-65
2022/01/11 02:18:24;;;;;;;115.00;40.25;;;-0.70;99.90;;;;;;5053808;28;20071;-65
2022/01/11 02:20:50;;;;;;;121.93;41.90;;;-0.60;99.90;;;;;;5052817;28;20068;-65
2022/01/11 02:23:18;;;;;;;117.05;40.17;;;-0.70;99.90;;;;;;5051552;28;20048;-65
2022/01/11 02:25:45;;;;;;;119.55;40.15;;;-0.60;99.90;;;;;;5051110;28;20373;-65
2022/01/11 02:28:15;;;;;;;118.68;39.70;;;-0.70;99.90;;;;;;5052022;28;20053;-64
2022/01/11 02:30:41;;;;;;;107.75;38.47;;;-0.70;99.90;;;;;;5051780;28;20045;-65
2022/01/11 02:33:15;;;;;;;117.03;39.45;;;-0.70;99.90;;;;;;5036323;28;20036;-64
2022/01/11 02:35:50;;;;;;;121.68;40.65;;;-0.70;99.90;;;;;;5052660;28;20049;-65
2022/01/11 02:38:16;;;;;;;132.35;43.60;;;-0.70;99.90;;;;;;5050198;28;20465;-65
2022/01/11 02:40:43;;;;;;;129.85;42.50;;;-0.70;99.90;;;;;;5051584;28;20132;-65
2022/01/11 02:43:09;;;;;;;137.50;40.90;;;-0.70;99.90;;;;;;5046680;28;20041;-64
2022/01/11 02:45:34;;;;;;;153.65;45.08;;;-0.70;99.90;;;;;;5053239;28;20403;-65
2022/01/11 02:48:00;;;;;;;124.93;42.00;;;-0.70;99.90;;;;;;5052032;28;20048;-65
2022/01/11 02:50:26;;;;;;;145.70;44.15;;;-0.70;99.90;;;;;;5052810;28;20117;-64
2022/01/11 02:52:52;;;;;;;143.05;42.83;;;-0.70;99.90;;;;;;5052649;28;20029;-64
2022/01/11 02:55:18;;;;;;;151.95;44.85;;;-0.70;99.90;;;;;;5052646;28;20056;-64
2022/01/11 02:57:44;;;;;;;153.18;44.33;;;-0.70;99.90;;;;;;5052481;28;20045;-65
2022/01/11 03:00:16;;;;;;;173.07;47.05;;;-0.70;99.90;;;;;;5033826;28;20076;-65
2022/01/11 03:02:43;;;;;;;168.27;48.13;;;-0.60;99.90;;;;;;5048790;28;20080;-65
2022/01/11 03:05:10;;;;;;;194.10;49.15;;;-0.60;99.90;;;;;;5052006;28;20103;-65
2022/01/11 03:07:38;;;;;;;184.52;46.67;;;-0.60;99.90;;;;;;5051350;28;20086;-66
2022/01/11 03:10:23;;;;;;;195.38;49.63;;;-0.60;99.90;;;;;;5048613;28;20092;-65
2022/01/11 03:12:49;;;;;;;205.70;48.65;;;-0.60;99.90;;;;;;5045951;28;20163;-65
2022/01/11 03:15:15;;;;;;;199.60;48.97;;;-0.60;99.90;;;;;;5023953;28;20124;-64
2022/01/11 03:17:41;;;;;;;226.82;48.45;;;-0.60;99.90;;;;;;5052735;28;20068;-65
2022/01/11 03:20:07;;;;;;;218.40;49.67;;;-0.50;99.90;;;;;;5052521;28;20068;-66
2022/01/11 03:22:36;;;;;;;208.23;49.67;;;-0.50;99.90;;;;;;5050113;28;20033;-65
2022/01/11 03:25:05;;;;;;;205.73;49.90;;;-0.50;99.90;;;;;;5052365;28;20037;-64
2022/01/11 03:27:30;;;;;;;;;;;-0.50;99.90;;;;;;5049247;28;20056;-64
2022/01/11 03:29:56;;;;;;;213.15;54.05;;;-0.40;99.90;;;;;;5050374;28;19916;-65
2022/01/11 03:32:22;;;;;;;219.75;50.13;;;-0.50;99.90;;;;;;5047988;28;20128;-65
2022/01/11 03:34:48;;;;;;;215.30;49.28;;;-0.50;99.90;;;;;;5043834;28;20483;-63
2022/01/11 03:37:16;;;;;;;209.52;49.40;;;-0.50;99.90;;;;;;5047916;28;20045;-65
2022/01/11 03:39:42;;;;;;;;;;;-0.50;99.90;;;;;;5036735;28;20565;-64
2022/01/11 03:42:07;;;;;;;278.58;52.33;;;-0.50;99.90;;;;;;5052079;28;19932;-64
2022/01/11 03:44:33;;;;;;;274.05;52.60;;;-0.50;99.90;;;;;;5052225;28;20165;-64
2022/01/11 03:47:00;;;;;;;272.50;52.50;;;-0.50;99.90;;;;;;5052303;28;20059;-65
2022/01/11 03:49:26;;;;;;;256.33;51.42;;;-0.50;99.90;;;;;;5049420;28;20154;-64
2022/01/11 03:51:51;;;;;;;248.15;50.85;;;-0.50;99.90;;;;;;5051844;28;20037;-65
2022/01/11 03:54:24;;;;;;;246.63;51.85;;;-0.50;99.90;;;;;;5035507;28;20055;-64
2022/01/11 03:56:50;;;;;;;228.07;50.55;;;-0.50;99.90;;;;;;5049190;28;20041;-66
2022/01/11 03:59:16;;;;;;;212.23;50.25;;;-0.50;99.90;;;;;;5050701;28;20063;-65
2022/01/11 04:01:42;;;;;;;226.43;49.92;;;-0.50;99.90;;;;;;5051662;28;20076;-67
2022/01/11 04:04:09;;;;;;;233.65;52.50;;;-0.50;99.90;;;;;;5051560;28;20122;-65
2022/01/11 04:06:35;;;;;;;222.73;50.95;;;-0.50;99.90;;;;;;5052263;28;20049;-64
2022/01/11 04:09:03;;;;;;;218.23;48.78;;;-0.50;99.90;;;;;;5052308;28;20049;-66
2022/01/11 04:11:29;;;;;;;252.57;50.92;;;-0.50;99.90;;;;;;5051096;28;20044;-65
2022/01/11 04:13:55;;;;;;;244.32;50.75;;;-0.50;99.90;;;;;;5051406;28;20047;-64
2022/01/11 04:16:20;;;;;;;243.27;49.60;;;-0.50;99.90;;;;;;5050023;28;20036;-64
2022/01/11 04:18:46;;;;;;;271.13;53.80;;;-0.50;99.90;;;;;;5048578;28;20402;-65
2022/01/11 04:21:12;;;;;;;268.55;52.35;;;-0.50;99.90;;;;;;5051079;28;20068;-64
2022/01/11 04:23:38;;;;;;;249.38;52.58;;;-0.50;99.90;;;;;;5050793;28;20454;-64
2022/01/11 04:26:05;;;;;;;254.30;52.25;;;-0.50;99.90;;;;;;5051259;28;20049;-65
2022/01/11 04:28:31;;;;;;;284.48;53.65;;;-0.50;99.90;;;;;;5048732;28;20048;-65
2022/01/11 04:30:59;;;;;;;255.25;51.88;;;-0.50;99.90;;;;;;5049491;28;20059;-65
2022/01/11 04:33:27;;;;;;;259.23;53.45;;;-0.50;99.90;;;;;;5049771;28;20043;-64
2022/01/11 04:35:53;;;;;;;216.80;50.27;;;-0.50;99.90;;;;;;5051714;28;20398;-66
2022/01/11 04:38:21;;;;;;;223.30;51.25;;;-0.50;99.90;;;;;;5050621;28;20103;-64
2022/01/11 04:40:47;;;;;;;207.77;50.35;;;-0.50;99.90;;;;;;5033674;28;20102;-65
2022/01/11 04:43:13;;;;;;;201.77;47.67;;;-0.50;99.90;;;;;;5050089;28;20076;-66
2022/01/11 04:45:39;;;;;;;185.77;45.65;;;-0.50;99.90;;;;;;5050765;28;20069;-65
2022/01/11 04:48:05;;;;;;;203.55;48.25;;;-0.50;99.90;;;;;;5050147;28;20497;-65
2022/01/11 04:50:32;;;;;;;209.75;47.50;;;-0.50;99.90;;;;;;5049506;28;20500;-63
2022/01/11 04:52:59;;;;;;;217.80;47.28;;;-0.50;99.90;;;;;;5049109;28;20072;-64
2022/01/11 04:55:25;;;;;;;195.30;46.85;;;-0.50;99.90;;;;;;5051321;28;20124;-64
2022/01/11 04:57:50;;;;;;;174.23;44.42;;;-0.50;99.90;;;;;;5050048;28;20583;-64
2022/01/11 05:00:19;;;;;;;182.30;45.38;;;-0.50;99.90;;;;;;5047473;28;20116;-65
2022/01/11 05:02:45;;;;;;;161.70;43.92;;;0.20;99.90;;;;;;5049084;28;20060;-64
2022/01/11 05:05:11;;;;;;;150.05;42.67;;;-0.50;99.90;;;;;;5049167;28;20476;-65
2022/01/11 05:07:37;;;;;;;148.32;44.40;;;-0.40;99.90;;;;;;5047225;28;20123;-64
2022/01/11 05:10:04;;;;;;;147.00;43.85;;;-0.40;99.90;;;;;;5050513;28;20436;-64
2022/01/11 05:12:30;;;;;;;143.90;42.80;;;-0.30;99.90;;;;;;5048971;28;20040;-65
2022/01/11 05:14:56;;;;;;;161.93;44.88;;;-0.30;99.90;;;;;;5048780;28;20049;-64
2022/01/11 05:17:22;;;;;;;156.73;43.40;;;-0.30;99.90;;;;;;5049848;28;20487;-66
2022/01/11 05:19:48;;;;;;;132.20;41.55;;;-0.30;99.90;;;;;;5050717;28;20049;-63
2022/01/11 05:22:14;;;;;;;125.18;40.95;;;-0.30;99.90;;;;;;5050551;28;20044;-64
2022/01/11 05:24:39;;;;;;;120.35;41.30;;;-0.30;99.90;;;;;;5048913;28;20143;-64
2022/01/11 05:27:05;;;;;;;124.82;41.38;;;-0.30;99.90;;;;;;5048967;28;20064;-64
2022/01/11 05:29:31;;;;;;;124.57;40.67;;;-0.30;99.90;;;;;;5047649;28;20049;-64
2022/01/11 05:31:58;;;;;;;116.07;39.58;;;-0.30;99.90;;;;;;5050373;28;20068;-64
2022/01/11 05:34:25;;;;;;;111.22;39.17;;;-0.20;99.90;;;;;;5048506;28;20514;-64
2022/01/11 05:36:51;;;;;;;111.88;39.03;;;-0.20;99.90;;;;;;5048539;28;20364;-65
2022/01/11 05:39:17;;;;;;;103.03;37.65;;;-0.20;99.90;;;;;;5049753;28;20084;-66
2022/01/11 05:41:42;;;;;;;105.05;38.47;;;-0.20;99.90;;;;;;5048015;28;20073;-64
2022/01/11 05:44:08;;;;;;;122.60;39.28;;;-0.10;99.90;;;;;;5048314;28;20473;-65
2022/01/11 05:46:34;;;;;;;97.30;36.50;;;-0.10;99.90;;;;;;5049735;28;20051;-66
2022/01/11 05:49:00;;;;;;;120.70;38.95;;;0.00;99.90;;;;;;5050737;28;20042;-66
2022/01/11 05:51:27;;;;;;;106.20;38.58;;;-0.20;99.90;;;;;;5049850;28;20457;-64
2022/01/11 05:53:53;;;;;;;106.43;36.92;;;-0.10;99.90;;;;;;5048182;28;20041;-64
2022/01/11 05:56:19;;;;;;;117.95;37.30;;;-0.20;99.90;;;;;;5050205;28;20041;-65
2022/01/11 05:58:46;;;;;;;109.47;39.08;;;-0.10;99.90;;;;;;5053000;28;20048;-65
2022/01/11 06:01:12;;;;;;;105.20;35.92;;;-0.10;99.90;;;;;;5051747;28;20601;-66
2022/01/11 06:03:38;;;;;;;100.18;36.03;;;-0.20;99.90;;;;;;5050520;28;20048;-64
2022/01/11 06:06:04;;;;;;;98.60;38.10;;;-0.10;99.90;;;;;;5045455;28;20040;-65
2022/01/11 06:08:29;;;;;;;111.57;35.78;;;-0.20;99.90;;;;;;5053659;28;20561;-65
2022/01/11 06:10:57;;;;;;;112.38;36.95;;;-0.10;99.90;;;;;;5053330;28;20048;-66
2022/01/11 06:13:23;;;;;;;96.60;34.85;;;-0.20;99.90;;;;;;5052974;28;20510;-65
2022/01/11 06:15:49;;;;;;;92.00;34.88;;;-0.20;99.90;;;;;;5052644;28;20037;-65
2022/01/11 06:18:15;;;;;;;96.78;35.25;;;-0.20;99.90;;;;;;5051968;28;20073;-66
2022/01/11 06:20:41;;;;;;;95.55;34.70;;;-0.20;99.90;;;;;;5054508;28;20110;-64
2022/01/11 06:23:06;;;;;;;94.53;34.30;;;-0.20;99.90;;;;;;5047994;28;20057;-64
2022/01/11 06:25:32;;;;;;;85.65;34.13;;;-0.20;99.90;;;;;;5051963;28;20618;-65
2022/01/11 06:27:58;;;;;;;96.47;34.33;;;-0.20;99.90;;;;;;5052792;28;20372;-63
2022/01/11 06:30:24;;;;;;;81.53;32.22;;;-0.20;99.90;;;;;;5050321;28;20120;-65
2022/01/11 06:32:49;;;;;;;98.25;35.20;;;-0.20;99.90;;;;;;5052885;28;20399;-65
2022/01/11 06:35:17;;;;;;;106.75;35.50;;;-0.20;99.90;;;;;;5051207;28;20044;-65
2022/01/11 06:37:44;;;;;;;92.97;35.33;;;-0.20;99.90;;;;;;5049995;28;20095;-64
2022/01/11 06:40:11;;;;;;;97.00;34.10;;;-0.20;99.90;;;;;;5032764;28;20505;-65
2022/01/11 06:42:37;;;;;;;84.55;33.75;;;-0.20;99.90;;;;;;5050496;28;20419;-64
2022/01/11 06:45:03;;;;;;;93.63;34.55;;;-0.20;99.90;;;;;;5052907;28;20033;-65
2022/01/11 06:47:29;;;;;;;99.43;36.30;;;-0.20;99.90;;;;;;5048559;28;20516;-65
2022/01/11 06:49:55;;;;;;;100.38;34.85;;;-0.20;99.90;;;;;;5041698;28;20071;-66
2022/01/11 06:52:21;;;;;;;89.43;34.03;;;1.50;99.90;;;;;;5050837;28;20418;-67
2022/01/11 06:54:47;;;;;;;92.65;33.25;;;-0.20;99.90;;;;;;5049378;28;20048;-65
2022/01/11 06:57:13;;;;;;;93.38;33.92;;;-0.20;99.90;;;;;;5052156;28;20037;-65
2022/01/11 06:59:38;;;;;;;95.90;33.55;;;-0.20;99.90;;;;;;5049911;28;20037;-66
2022/01/11 07:02:06;;;;;;;81.75;34.63;;;-0.20;99.90;;;;;;5047187;28;20069;-66
2022/01/11 07:04:37;;;;;;;90.50;34.90;;;-0.20;99.90;;;;;;5047617;28;20038;-67
2022/01/11 07:07:04;;;;;;;89.13;34.47;;;-0.20;99.90;;;;;;5052197;28;20116;-66
2022/01/11 07:09:30;;;;;;;77.53;30.80;;;-0.20;99.90;;;;;;5051890;28;20049;-66
2022/01/11 07:11:55;;;;;;;85.43;31.52;;;-0.20;99.90;;;;;;5044198;28;20045;-65
2022/01/11 07:14:21;;;;;;;83.20;32.65;;;-0.10;99.90;;;;;;5051035;28;20084;-64
2022/01/11 07:16:48;;;;;;;81.15;32.33;;;-0.10;99.90;;;;;;5051545;28;20079;-63
2022/01/11 07:19:18;;;;;;;80.72;31.88;;;-0.30;99.90;;;;;;5052850;28;20048;-64
2022/01/11 07:21:44;;;;;;;84.95;32.15;;;-0.10;99.90;;;;;;5054179;28;20041;-65
2022/01/11 07:24:12;;;;;;;86.68;32.78;;;-0.10;99.90;;;;;;5047664;28;20041;-65
2022/01/11 07:26:37;;;;;;;82.00;30.98;;;-0.10;99.90;;;;;;5067298;28;20234;-64
2022/01/11 07:29:05;;;;;;;82.97;31.15;;;-0.10;99.90;;;;;;5049418;28;20063;-65
2022/01/11 07:31:32;;;;;;;75.32;31.02;;;-0.10;99.90;;;;;;5053126;28;20071;-65
2022/01/11 07:33:58;;;;;;;74.38;30.65;;;-0.10;99.90;;;;;;5048760;28;20048;-65
2022/01/11 07:36:24;;;;;;;84.80;32.88;;;-0.10;99.90;;;;;;5030021;28;20041;-66
2022/01/11 07:38:51;;;;;;;87.93;30.20;;;-0.10;99.90;;;;;;5052763;28;20052;-65
2022/01/11 07:41:18;;;;;;;79.88;30.95;;;0.00;99.90;;;;;;5051740;28;20044;-64
2022/01/11 07:43:44;;;;;;;80.35;29.65;;;-0.10;99.90;;;;;;5050923;28;20049;-65
2022/01/11 07:46:10;;;;;;;83.78;30.40;;;0.00;99.90;;;;;;5050796;28;20075;-65
2022/01/11 07:48:36;;;;;;;75.38;29.08;;;0.00;99.90;;;;;;5040058;28;20495;-65
2022/01/11 07:51:02;;;;;;;72.65;29.73;;;0.00;99.90;;;;;;5047246;28;20055;-65
2022/01/11 07:53:28;;;;;;;77.72;29.55;;;0.00;99.90;;;;;;5052653;28;20053;-65
2022/01/11 07:55:53;;;;;;;73.55;27.98;;;0.00;99.90;;;;;;5052002;28;20395;-67
2022/01/11 07:58:19;;;;;;;67.68;28.63;;;0.00;99.90;;;;;;5052185;28;20162;-65
2022/01/11 08:00:45;;;;;;;70.82;29.73;;;0.10;99.90;;;;;;5051905;28;20041;-64
2022/01/11 08:03:11;;;;;;;70.30;27.58;;;0.10;99.90;;;;;;5051680;28;20067;-64
2022/01/11 08:05:36;;;;;;;62.85;27.38;;;0.10;99.90;;;;;;5053007;28;20047;-65
2022/01/11 08:08:02;;;;;;;69.57;29.05;;;0.10;99.90;;;;;;5035013;28;20053;-66
2022/01/11 08:10:28;;;;;;;69.68;29.02;;;0.10;99.90;;;;;;5053310;28;20066;-65
2022/01/11 08:12:54;;;;;;;76.70;28.30;;;0.10;99.90;;;;;;5051229;28;20064;-64
2022/01/11 08:15:20;;;;;;;74.30;28.08;;;0.10;99.90;;;;;;5051278;28;20450;-65
2022/01/11 08:17:47;;;;;;;70.28;27.98;;;0.10;99.90;;;;;;5047028;28;20483;-65
2022/01/11 08:20:13;;;;;;;65.85;28.00;;;0.10;99.90;;;;;;5046984;28;20045;-67
2022/01/11 08:22:39;;;;;;;80.55;29.40;;;0.20;99.90;;;;;;5051933;28;20048;-64
2022/01/11 08:25:05;;;;;;;61.40;26.77;;;0.20;99.90;;;;;;5052639;28;20037;-66
2022/01/11 08:27:33;;;;;;;68.15;27.95;;;0.20;99.90;;;;;;5052686;28;20045;-65
2022/01/11 08:30:03;;;;;;;65.75;26.35;;;0.30;99.90;;;;;;5052092;28;20037;-65
2022/01/11 08:32:29;;;;;;;84.07;33.47;;;0.30;99.90;;;;;;5052789;28;20056;-65
2022/01/11 08:34:54;;;;;;;72.43;30.95;;;0.40;99.90;;;;;;5052169;28;20041;-63
2022/01/11 08:37:20;;;;;;;78.95;28.00;;;0.40;99.90;;;;;;5051150;28;20107;-65
2022/01/11 08:39:46;;;;;;;71.85;28.00;;;0.50;99.90;;;;;;5068187;28;20041;-65
2022/01/11 08:42:12;;;;;;;76.15;29.83;;;0.50;99.90;;;;;;5052450;28;20037;-65
2022/01/11 08:44:45;;;;;;;70.97;27.35;;;0.50;99.90;;;;;;5052154;28;20041;-65
2022/01/11 08:47:12;;;;;;;64.07;28.67;;;0.50;99.90;;;;;;5051695;28;20037;-65
2022/01/11 08:49:38;;;;;;;72.20;26.98;;;0.50;99.90;;;;;;5051802;28;20049;-65
2022/01/11 08:52:04;;;;;;;65.03;26.58;;;0.40;99.90;;;;;;5052655;28;20079;-65
2022/01/11 08:54:30;;;;;;;76.57;28.42;;;0.40;99.90;;;;;;5050307;28;20044;-66
2022/01/11 08:56:56;;;;;;;64.18;25.30;;;0.50;99.90;;;;;;5052007;28;20041;-65
2022/01/11 08:59:24;;;;;;;63.28;25.88;;;0.50;99.90;;;;;;5051899;28;20438;-67
2022/01/11 09:01:52;;;;;;;58.95;24.95;;;0.60;99.90;;;;;;5050701;28;20120;-64
2022/01/11 09:04:18;;;;;;;61.87;25.13;;;2.00;99.90;;;;;;5050101;28;20087;-64
2022/01/11 09:06:44;;;;;;;60.28;24.85;;;0.60;99.90;;;;;;5066099;28;20057;-65
2022/01/11 09:09:10;;;;;;;57.20;24.50;;;0.60;99.90;;;;;;5051013;28;20043;-64
2022/01/11 09:11:36;;;;;;;59.22;23.50;;;0.60;99.90;;;;;;5051877;28;20509;-66
2022/01/11 09:14:02;;;;;;;53.83;22.67;;;0.50;99.90;;;;;;5051648;28;20048;-65
2022/01/11 09:16:27;;;;;;;54.40;24.42;;;0.50;99.90;;;;;;5051468;28;20507;-65
2022/01/11 09:18:53;;;;;;;49.75;22.38;;;0.80;99.90;;;;;;5050962;28;20068;-63
2022/01/11 09:21:22;;;;;;;50.92;22.08;;;0.50;99.90;;;;;;5051497;28;20045;-64
2022/01/11 09:23:49;;;;;;;58.90;22.80;;;0.50;99.90;;;;;;5051380;28;20052;-65
2022/01/11 09:26:16;;;;;;;47.05;21.90;;;0.50;99.90;;;;;;5045632;28;20131;-66
2022/01/11 09:28:42;;;;;;;45.35;20.65;;;0.50;99.90;;;;;;5050604;28;20055;-65
2022/01/11 09:31:07;;;;;;;50.58;21.20;;;0.50;99.90;;;;;;5051199;28;20045;-64
2022/01/11 09:33:33;;;;;;;55.38;23.10;;;0.50;99.90;;;;;;5054999;28;20045;-65
2022/01/11 09:36:00;;;;;;;52.95;21.20;;;0.50;99.90;;;;;;5055055;28;20399;-64
2022/01/11 09:38:28;;;;;;;43.38;19.90;;;0.50;99.90;;;;;;5055047;28;20041;-64
2022/01/11 09:40:56;;;;;;;51.67;23.53;;;0.50;99.90;;;;;;5055301;28;20071;-64
2022/01/11 09:43:23;;;;;;;;;;;0.60;99.90;;;;;;5054661;28;20067;-64
2022/01/11 09:45:50;;;;;;;52.20;22.02;;;0.60;99.90;;;;;;5035960;28;19933;-64
2022/01/11 09:48:25;;;;;;;44.70;20.63;;;0.60;99.90;;;;;;5054264;28;20049;-65
2022/01/11 09:50:51;;;;;;;46.70;19.90;;;0.60;99.90;;;;;;5053669;28;20044;-65
2022/01/11 09:53:19;;;;;;;43.08;20.48;;;0.70;99.90;;;;;;5053783;28;20124;-64
2022/01/11 09:55:45;;;;;;;41.13;20.80;;;0.70;99.90;;;;;;5056375;28;20052;-65
2022/01/11 09:58:12;;;;;;;37.25;18.27;;;0.70;99.90;;;;;;5056527;28;20376;-64
2022/01/11 10:00:39;;;;;;;39.70;19.27;;;0.70;99.90;;;;;;5065437;28;20051;-65
2022/01/11 10:03:06;;;;;;;41.78;19.38;;;0.70;99.90;;;;;;5067381;28;20112;-66
2022/01/11 10:05:33;;;;;;;43.80;20.25;;;1.50;99.90;;;;;;5063508;28;20084;-65
2022/01/11 10:07:59;;;;;;;41.08;18.38;;;0.70;99.90;;;;;;5055451;28;20044;-65
2022/01/11 10:10:26;;;;;;;40.33;18.50;;;0.80;99.90;;;;;;5059508;28;20049;-65
2022/01/11 10:12:55;;;;;;;36.83;17.70;;;1.50;99.90;;;;;;5053207;28;20067;-66
2022/01/11 10:15:36;;;;;;;36.28;17.92;;;0.80;99.90;;;;;;5062002;28;20111;-66
2022/01/11 10:18:03;;;;;;;42.72;17.98;;;0.90;99.90;;;;;;5053913;28;20055;-65
2022/01/11 10:20:29;;;;;;;38.65;18.05;;;0.90;99.90;;;;;;5054009;28;20049;-67
2022/01/11 10:22:55;;;;;;;37.65;18.17;;;0.90;99.90;;;;;;5053535;28;20514;-66
2022/01/11 10:25:20;;;;;;;32.08;17.33;;;1.00;99.90;;;;;;5054548;28;20059;-65
2022/01/11 10:27:56;;;;;;;34.40;17.55;;;1.00;99.90;;;;;;5053991;28;20124;-67
2022/01/11 10:30:23;;;;;;;32.70;17.60;;;1.00;99.90;;;;;;5041979;28;20076;-66
2022/01/11 10:32:51;;;;;;;38.45;17.77;;;1.00;99.90;;;;;;5038465;28;20079;-65
2022/01/11 10:35:33;;;;;;;33.72;17.42;;;1.00;99.90;;;;;;5053375;28;20475;-66
2022/01/11 10:38:00;;;;;;;31.02;15.57;;;0.90;99.90;;;;;;5053596;28;20045;-66
2022/01/11 10:40:34;;;;;;;34.70;18.10;;;1.00;99.90;;;;;;5053332;28;20037;-66
2022/01/11 10:43:04;;;;;;;35.50;17.55;;;0.90;99.90;;;;;;5052426;28;20084;-65
2022/01/11 10:45:33;;;;;;;36.90;17.95;;;0.90;99.90;;;;;;5053884;28;20041;-65
2022/01/11 10:48:06;;;;;;;37.35;18.17;;;0.90;99.90;;;;;;5052856;28;20509;-65
2022/01/11 10:50:37;;;;;;;35.75;17.55;;;0.90;99.90;;;;;;5054097;28;20504;-66
2022/01/11 10:53:19;;;;;;;35.58;17.80;;;1.00;99.90;;;;;;5053480;28;20045;-66
2022/01/11 10:55:54;;;;;;;38.63;16.35;;;1.00;99.90;;;;;;5053685;28;20161;-66
2022/01/11 10:58:22;;;;;;;34.00;16.30;;;1.00;99.90;;;;;;5052310;28;20128;-67
2022/01/11 11:00:52;;;;;;;34.97;18.02;;;0.90;99.90;;;;;;5021029;28;20038;-66
2022/01/11 11:03:21;;;;;;;33.05;17.55;;;1.00;99.90;;;;;;5051006;28;20041;-66
2022/01/11 11:06:10;;;;;;;34.67;17.35;;;1.00;99.90;;;;;;5053193;28;20043;-66
2022/01/11 11:08:47;;;;;;;31.27;17.00;;;1.00;99.90;;;;;;5052399;28;20084;-66
2022/01/11 11:11:17;;;;;;;33.83;18.25;;;1.10;99.90;;;;;;5060458;28;20048;-66
2022/01/11 11:13:45;;;;;;;34.97;17.85;;;1.10;99.90;;;;;;5051248;28;20491;-67
2022/01/11 11:16:21;;;;;;;38.80;19.67;;;1.20;99.90;;;;;;5054759;28;20055;-66
2022/01/11 11:19:01;;;;;;;41.58;19.63;;;1.30;99.90;;;;;;5056329;28;20052;-69
2022/01/11 11:21:33;;;;;;;31.35;17.20;;;1.40;99.90;;;;;;5051975;28;20052;-67
2022/01/11 11:24:01;;;;;;;36.72;18.17;;;1.50;99.90;;;;;;5051177;28;20045;-65
2022/01/11 11:26:31;;;;;;;37.50;18.65;;;2.00;99.90;;;;;;5048412;28;20049;-66
2022/01/11 11:28:57;;;;;;;35.13;18.52;;;1.70;99.90;;;;;;5047568;28;20060;-66
2022/01/11 11:31:25;;;;;;;36.38;18.02;;;1.90;99.90;;;;;;5051806;28;20132;-66
2022/01/11 11:33:51;;;;;;;31.25;16.50;;;2.00;99.90;;;;;;5052131;28;20056;-64
2022/01/11 11:36:18;;;;;;;29.73;16.45;;;2.10;99.90;;;;;;5051783;28;20106;-65
2022/01/11 11:38:54;;;;;;;37.30;17.08;;;2.30;99.90;;;;;;5049511;28;20055;-66
2022/01/11 11:41:21;;;;;;;32.17;17.08;;;2.40;99.90;;;;;;5034625;28;20051;-66
2022/01/11 11:44:13;;;;;;;35.03;17.40;;;2.70;99.90;;;;;;5049378;28;20072;-67
2022/01/11 11:46:54;;;;;;;32.17;17.63;;;2.70;99.90;;;;;;5049390;28;20126;-66
2022/01/11 11:49:43;;;;;;;32.08;16.35;;;2.80;99.90;;;;;;5040585;28;20388;-66
2022/01/11 11:52:34;;;;;;;32.75;17.48;;;2.90;99.90;;;;;;5053971;28;20053;-65
2022/01/11 11:55:19;;;;;;;34.40;16.30;;;3.00;99.90;;;;;;5050334;28;20041;-66
2022/01/11 11:57:47;;;;;;;32.10;16.58;;;3.00;99.90;;;;;;5044742;28;20034;-67
2022/01/11 12:00:21;;;;;;;30.52;15.68;;;2.90;99.90;;;;;;5045711;28;20044;-66
2022/01/11 12:02:48;;;;;;;30.95;16.67;;;2.90;99.90;;;;;;5046577;28;20282;-64
2022/01/11 12:05:34;;;;;;;28.10;15.65;;;2.80;99.90;;;;;;5050527;28;20057;-64
2022/01/11 12:08:37;;;;;;;30.23;16.15;;;2.80;99.90;;;;;;5041887;28;20099;-66
2022/01/11 12:11:08;;;;;;;30.77;17.00;;;2.80;99.90;;;;;;5067759;28;20049;-65
2022/01/11 12:13:52;;;;;;;34.78;16.73;;;2.70;99.90;;;;;;5047850;28;20388;-66
2022/01/11 12:16:26;;;;;;;30.73;16.73;;;2.70;99.90;;;;;;5044500;28;20067;-66
2022/01/11 12:19:00;;;;;;;33.47;18.05;;;2.70;99.90;;;;;;5050055;28;20497;-67
2022/01/11 12:21:27;;;;;;;28.77;15.95;;;2.60;99.90;;;;;;5049454;28;20056;-65
2022/01/11 12:23:57;;;;;;;36.30;18.50;;;2.70;99.90;;;;;;5051119;28;20128;-66
2022/01/11 12:26:34;;;;;;;32.85;17.35;;;2.60;99.90;;;;;;5049692;28;20060;-66
2022/01/11 12:29:03;;;;;;;34.13;18.17;;;2.60;99.90;;;;;;5055680;28;20056;-64
2022/01/11 12:31:55;;;;;;;32.00;18.08;;;2.60;99.90;;;;;;5057118;28;20048;-65
2022/01/11 12:34:46;;;;;;;32.75;17.90;;;2.60;99.90;;;;;;5047517;28;20415;-66
2022/01/11 12:37:25;;;;;;;34.60;18.23;;;2.60;99.90;;;;;;5050030;28;20053;-65